Corinthiakos — A8UL2 — position and weather

sailwx.info

Track history (hours):
 
Tides and Currents Weather Stations Pressure Air Temp Water Temp Dewpoint Dewpoint Depression Visibility Wind Speed Wind Dir Waves Ship Positions

Corinthiakos

Last reported at 2014-Nov-16 02:33 UTC. Time now 2014-Nov-20 20:59 UTC.
Position N 21°51' E 113°52'.

Length 262 m; draft 11.8 m.

Type: Cargo ship. MMSI: 636014516.

Date/timePositionNaut miles runAvg speedWind from/ knotsBaromVisibWave heightAir tempDewpointWater temp
2014-Nov-16 02:33N 21°51' E 113°52'1212.1
2014-Nov-16 01:33N 22°03' E 113°51'1313.1
2014-Nov-16 00:33N 22°16' E 113°48'1212.4
2014-Nov-15 23:33N 22°28' E 113°45'1110.6
2014-Nov-15 22:33N 22°38' E 113°41'0 0.0
2014-Nov-15 20:18N 22°38' E 113°41'0 0.0
2014-Nov-15 19:12N 22°38' E 113°41'0 0.0
2014-Nov-15 16:18N 22°38' E 113°41'0 0.0
2014-Nov-15 14:24N 22°38' E 113°41'0 0.0
2014-Nov-15 13:33N 22°38' E 113°41'5 5.4
2014-Nov-15 12:33N 22°33' E 113°44'1514.8
2014-Nov-15 11:33N 22°19' E 113°48'1313.0
2014-Nov-15 10:33N 22°06' E 113°51'7 7.3
2014-Nov-15 09:33N 21°59' E 113°54'0 0.1
2014-Nov-15 08:14N 21°59' E 113°54'0 0.0
2014-Nov-15 07:08N 21°59' E 113°54'0 0.0
2014-Nov-15 06:32N 21°59' E 113°54'0 0.0
2014-Nov-15 05:14N 21°59' E 113°54'0 0.0
2014-Nov-15 04:26N 21°59' E 113°54'0 0.0
2014-Nov-15 03:14N 21°59' E 113°54'0 0.0
2014-Nov-15 02:32N 21°59' E 113°54'0 0.0
2014-Nov-15 01:26N 21°59' E 113°54'0 0.0
2014-Nov-15 00:32N 21°59' E 113°54'0 0.0
2014-Nov-14 23:32N 21°59' E 113°54'0 0.0
2014-Nov-14 22:32N 21°59' E 113°54'0 0.0
2014-Nov-14 21:32N 21°59' E 113°54'0 0.0
2014-Nov-14 20:32N 21°59' E 113°54'0 0.0
2014-Nov-14 19:32N 21°59' E 113°54'0 0.0
2014-Nov-14 18:20N 21°59' E 113°54'0 0.0
2014-Nov-14 17:32N 21°59' E 113°54'0 0.0
2014-Nov-14 16:14N 21°59' E 113°54'0 0.0
2014-Nov-14 15:32N 21°59' E 113°54'0 0.0
2014-Nov-14 14:20N 21°59' E 113°54'0 0.0
2014-Nov-14 12:26N 21°59' E 113°54'0 0.0
2014-Nov-14 11:32N 21°59' E 113°54'0 0.0
2014-Nov-14 07:20N 21°59' E 113°54'0 0.0
2014-Nov-14 06:08N 21°59' E 113°54'0 0.0
2014-Nov-14 05:14N 21°59' E 113°54'0 0.0
2014-Nov-14 04:32N 21°59' E 113°54'0 0.0
2014-Nov-14 02:14N 21°59' E 113°54'0 0.0
2014-Nov-14 01:31N 21°59' E 113°54'0 0.0
2014-Nov-14 00:33N 21°59' E 113°54'0 0.1
2014-Nov-13 23:33N 21°59' E 113°54'8 7.7
2014-Nov-13 22:33N 21°52' E 113°51'10 8.9
2014-Nov-13 21:28N 21°46' E 114°00'25914.2
2014-Nov-13 03:14N 23°42' E 118°11'5213.8
2014-Nov-12 23:29N 24°16' E 118°53'35413.5
2014-Nov-11 21:09N 29°13' E 122°30'914.6
2014-Nov-11 20:32N 29°22' E 122°31'1614.2
2014-Nov-11 19:23N 29°38' E 122°33'1113.1
2014-Nov-11 18:33N 29°43' E 122°22'1111.2
2014-Nov-11 17:33N 29°51' E 122°12'1212.1
2014-Nov-11 16:33N 29°56' E 122°00'9 9.0
2014-Nov-11 15:32N 29°59' E 121°50'0 0.1
2014-Nov-11 12:31N 29°59' E 121°50'0 0.0
2014-Nov-11 11:13N 29°59' E 121°50'0 0.0
2014-Nov-11 10:31N 29°59' E 121°50'0 0.0
2014-Nov-11 09:31N 29°59' E 121°50'0 0.4
2014-Nov-11 08:33N 29°59' E 121°50'10 9.8
2014-Nov-11 07:33N 29°56' E 122°01'1212.0
2014-Nov-11 06:33N 29°50' E 122°13'1211.5
2014-Nov-11 05:33N 29°45' E 122°25'0 0.0
2014-Nov-10 23:05N 29°45' E 122°25'1 0.5
2014-Nov-10 21:33N 29°44' E 122°26'1110.6
2014-Nov-10 20:33N 29°43' E 122°38'1313.2
2014-Nov-10 19:33N 29°54' E 122°47'39 8.8
2014-Nov-10 15:06N 30°31' E 122°33'711.7
2014-Nov-10 14:33N 30°32' E 122°25'1212.0
2014-Nov-10 13:33N 30°34' E 122°12'8 1.1
2014-Nov-10 06:30N 30°37' E 122°04'6 6.2
2014-Nov-10 05:33N 30°34' E 122°09'10 9.4
2014-Nov-10 04:29N 30°33' E 122°21'20 0.7
2014-Nov-08 23:32N 30°28' E 122°44'34313.2
2014-Nov-07 21:33N 35°56' E 120°44'1515.3
2014-Nov-07 20:33N 35°60' E 120°25'11 8.1
2014-Nov-07 19:13N 36°00' E 120°12'0 0.0
2014-Nov-07 18:25N 36°00' E 120°12'0 0.0
2014-Nov-07 17:13N 36°00' E 120°12'0 0.0
2014-Nov-07 16:25N 36°00' E 120°12'0 0.0
2014-Nov-07 14:25N 36°00' E 120°12'2 1.3
2014-Nov-07 12:33N 36°02' E 120°14'10 9.1
2014-Nov-07 11:28N 36°00' E 120°26'1010.8
2014-Nov-07 10:30N 35°58' E 120°39'139 4.8
2014-Nov-06 05:10N 37°10' E 123°08'  
Track history (hours):
 
Tides and Currents Weather Stations Pressure Air Temp Water Temp Dewpoint Dewpoint Depression Visibility Wind Speed Wind Dir Waves Ship Positions

Corinthiakos

Last reported at 2014-Nov-16 02:33 UTC. Time now 2014-Nov-20 20:59 UTC.
Position N 21°51' E 113°52'.

Length 262 m; draft 11.8 m.

Type: Cargo ship. MMSI: 636014516.

Date/timePositionNaut miles runAvg speedWind from/ knotsBaromVisibWave heightAir tempDewpointWater temp
2014-Nov-16 02:33N 21°51' E 113°52'1212.1
2014-Nov-16 01:33N 22°03' E 113°51'1313.1
2014-Nov-16 00:33N 22°16' E 113°48'1212.4
2014-Nov-15 23:33N 22°28' E 113°45'1110.6
2014-Nov-15 22:33N 22°38' E 113°41'0 0.0
2014-Nov-15 20:18N 22°38' E 113°41'0 0.0
2014-Nov-15 19:12N 22°38' E 113°41'0 0.0
2014-Nov-15 16:18N 22°38' E 113°41'0 0.0
2014-Nov-15 14:24N 22°38' E 113°41'0 0.0
2014-Nov-15 13:33N 22°38' E 113°41'5 5.4
2014-Nov-15 12:33N 22°33' E 113°44'1514.8
2014-Nov-15 11:33N 22°19' E 113°48'1313.0
2014-Nov-15 10:33N 22°06' E 113°51'7 7.3
2014-Nov-15 09:33N 21°59' E 113°54'0 0.1
2014-Nov-15 08:14N 21°59' E 113°54'0 0.0
2014-Nov-15 07:08N 21°59' E 113°54'0 0.0
2014-Nov-15 06:32N 21°59' E 113°54'0 0.0
2014-Nov-15 05:14N 21°59' E 113°54'0 0.0
2014-Nov-15 04:26N 21°59' E 113°54'0 0.0
2014-Nov-15 03:14N 21°59' E 113°54'0 0.0
2014-Nov-15 02:32N 21°59' E 113°54'0 0.0
2014-Nov-15 01:26N 21°59' E 113°54'0 0.0
2014-Nov-15 00:32N 21°59' E 113°54'0 0.0
2014-Nov-14 23:32N 21°59' E 113°54'0 0.0
2014-Nov-14 22:32N 21°59' E 113°54'0 0.0
2014-Nov-14 21:32N 21°59' E 113°54'0 0.0
2014-Nov-14 20:32N 21°59' E 113°54'0 0.0
2014-Nov-14 19:32N 21°59' E 113°54'0 0.0
2014-Nov-14 18:20N 21°59' E 113°54'0 0.0
2014-Nov-14 17:32N 21°59' E 113°54'0 0.0
2014-Nov-14 16:14N 21°59' E 113°54'0 0.0
2014-Nov-14 15:32N 21°59' E 113°54'0 0.0
2014-Nov-14 14:20N 21°59' E 113°54'0 0.0
2014-Nov-14 12:26N 21°59' E 113°54'0 0.0
2014-Nov-14 11:32N 21°59' E 113°54'0 0.0
2014-Nov-14 07:20N 21°59' E 113°54'0 0.0
2014-Nov-14 06:08N 21°59' E 113°54'0 0.0
2014-Nov-14 05:14N 21°59' E 113°54'0 0.0
2014-Nov-14 04:32N 21°59' E 113°54'0 0.0
2014-Nov-14 02:14N 21°59' E 113°54'0 0.0
2014-Nov-14 01:31N 21°59' E 113°54'0 0.0
2014-Nov-14 00:33N 21°59' E 113°54'0 0.1
2014-Nov-13 23:33N 21°59' E 113°54'8 7.7
2014-Nov-13 22:33N 21°52' E 113°51'10 8.9
2014-Nov-13 21:28N 21°46' E 114°00'25914.2
2014-Nov-13 03:14N 23°42' E 118°11'5213.8
2014-Nov-12 23:29N 24°16' E 118°53'35413.5
2014-Nov-11 21:09N 29°13' E 122°30'914.6
2014-Nov-11 20:32N 29°22' E 122°31'1614.2
2014-Nov-11 19:23N 29°38' E 122°33'1113.1
2014-Nov-11 18:33N 29°43' E 122°22'1111.2
2014-Nov-11 17:33N 29°51' E 122°12'1212.1
2014-Nov-11 16:33N 29°56' E 122°00'9 9.0
2014-Nov-11 15:32N 29°59' E 121°50'0 0.1
2014-Nov-11 12:31N 29°59' E 121°50'0 0.0
2014-Nov-11 11:13N 29°59' E 121°50'0 0.0
2014-Nov-11 10:31N 29°59' E 121°50'0 0.0
2014-Nov-11 09:31N 29°59' E 121°50'0 0.4
2014-Nov-11 08:33N 29°59' E 121°50'10 9.8
2014-Nov-11 07:33N 29°56' E 122°01'1212.0
2014-Nov-11 06:33N 29°50' E 122°13'1211.5
2014-Nov-11 05:33N 29°45' E 122°25'0 0.0
2014-Nov-10 23:05N 29°45' E 122°25'1 0.5
2014-Nov-10 21:33N 29°44' E 122°26'1110.6
2014-Nov-10 20:33N 29°43' E 122°38'1313.2
2014-Nov-10 19:33N 29°54' E 122°47'39 8.8
2014-Nov-10 15:06N 30°31' E 122°33'711.7
2014-Nov-10 14:33N 30°32' E 122°25'1212.0
2014-Nov-10 13:33N 30°34' E 122°12'8 1.1
2014-Nov-10 06:30N 30°37' E 122°04'6 6.2
2014-Nov-10 05:33N 30°34' E 122°09'10 9.4
2014-Nov-10 04:29N 30°33' E 122°21'20 0.7
2014-Nov-08 23:32N 30°28' E 122°44'34313.2
2014-Nov-07 21:33N 35°56' E 120°44'1515.3
2014-Nov-07 20:33N 35°60' E 120°25'11 8.1
2014-Nov-07 19:13N 36°00' E 120°12'0 0.0
2014-Nov-07 18:25N 36°00' E 120°12'0 0.0
2014-Nov-07 17:13N 36°00' E 120°12'0 0.0
2014-Nov-07 16:25N 36°00' E 120°12'0 0.0
2014-Nov-07 14:25N 36°00' E 120°12'2 1.3
2014-Nov-07 12:33N 36°02' E 120°14'10 9.1
2014-Nov-07 11:28N 36°00' E 120°26'1010.8
2014-Nov-07 10:30N 35°58' E 120°39'139 4.8
2014-Nov-06 05:10N 37°10' E 123°08'  

Dump ship's entire track history